sensor_id;sensor_type;location;lat;lon;timestamp;temperature;humidity
26326;DHT22;14032;52.510;7.342;2022-09-03T00:00:33;17.60;86.70
26326;DHT22;14032;52.510;7.342;2022-09-03T00:03:32;17.50;86.80
26326;DHT22;14032;52.510;7.342;2022-09-03T00:06:22;17.50;86.80
26326;DHT22;14032;52.510;7.342;2022-09-03T00:14:40;17.40;87.10
26326;DHT22;14032;52.510;7.342;2022-09-03T00:17:12;17.30;87.30
26326;DHT22;14032;52.510;7.342;2022-09-03T00:19:45;17.30;87.60
26326;DHT22;14032;52.510;7.342;2022-09-03T00:22:19;17.30;87.60
26326;DHT22;14032;52.510;7.342;2022-09-03T00:24:47;17.20;87.50
26326;DHT22;14032;52.510;7.342;2022-09-03T00:27:22;17.20;87.70
26326;DHT22;14032;52.510;7.342;2022-09-03T00:32:28;17.20;87.70
26326;DHT22;14032;52.510;7.342;2022-09-03T00:35:03;17.10;87.90
26326;DHT22;14032;52.510;7.342;2022-09-03T00:37:30;17.20;88.00
26326;DHT22;14032;52.510;7.342;2022-09-03T00:39:56;17.10;88.10
26326;DHT22;14032;52.510;7.342;2022-09-03T00:50:13;17.00;88.50
26326;DHT22;14032;52.510;7.342;2022-09-03T00:58:19;16.90;88.70
26326;DHT22;14032;52.510;7.342;2022-09-03T01:00:50;16.80;88.80
26326;DHT22;14032;52.510;7.342;2022-09-03T01:06:16;16.80;89.10
26326;DHT22;14032;52.510;7.342;2022-09-03T01:11:57;16.80;89.10
26326;DHT22;14032;52.510;7.342;2022-09-03T01:30:37;16.60;89.90
26326;DHT22;14032;52.510;7.342;2022-09-03T01:33:36;16.50;90.30
26326;DHT22;14032;52.510;7.342;2022-09-03T01:36:23;16.50;90.10
26326;DHT22;14032;52.510;7.342;2022-09-03T01:38:52;16.50;90.10
26326;DHT22;14032;52.510;7.342;2022-09-03T01:50:11;16.40;90.40
26326;DHT22;14032;52.510;7.342;2022-09-03T01:55:32;16.40;90.50
26326;DHT22;14032;52.510;7.342;2022-09-03T02:00:40;16.30;90.50
26326;DHT22;14032;52.510;7.342;2022-09-03T02:03:09;16.30;90.50
26326;DHT22;14032;52.510;7.342;2022-09-03T02:05:35;16.30;90.60
26326;DHT22;14032;52.510;7.342;2022-09-03T02:08:03;16.20;90.70
26326;DHT22;14032;52.510;7.342;2022-09-03T02:10:31;16.20;90.70
26326;DHT22;14032;52.510;7.342;2022-09-03T02:13:06;16.20;90.70
26326;DHT22;14032;52.510;7.342;2022-09-03T02:15:35;16.20;90.80
26326;DHT22;14032;52.510;7.342;2022-09-03T02:18:04;16.20;90.80
26326;DHT22;14032;52.510;7.342;2022-09-03T02:20:31;16.10;90.90
26326;DHT22;14032;52.510;7.342;2022-09-03T02:22:57;16.10;91.00
26326;DHT22;14032;52.510;7.342;2022-09-03T02:25:30;16.10;91.30
26326;DHT22;14032;52.510;7.342;2022-09-03T02:27:58;16.10;91.10
26326;DHT22;14032;52.510;7.342;2022-09-03T02:30:25;16.10;91.10
26326;DHT22;14032;52.510;7.342;2022-09-03T02:32:50;16.00;91.10
26326;DHT22;14032;52.510;7.342;2022-09-03T02:35:16;16.00;91.20
26326;DHT22;14032;52.510;7.342;2022-09-03T02:37:42;16.00;91.20
26326;DHT22;14032;52.510;7.342;2022-09-03T02:40:08;16.00;91.20
26326;DHT22;14032;52.510;7.342;2022-09-03T02:42:35;16.00;91.40
26326;DHT22;14032;52.510;7.342;2022-09-03T02:45:21;16.00;91.30
26326;DHT22;14032;52.510;7.342;2022-09-03T02:47:51;16.00;91.40
26326;DHT22;14032;52.510;7.342;2022-09-03T02:50:19;15.90;91.50
26326;DHT22;14032;52.510;7.342;2022-09-03T02:52:44;15.90;91.50
26326;DHT22;14032;52.510;7.342;2022-09-03T02:55:10;15.90;91.60
26326;DHT22;14032;52.510;7.342;2022-09-03T02:57:36;15.90;91.70
26326;DHT22;14032;52.510;7.342;2022-09-03T03:00:02;15.90;91.60
26326;DHT22;14032;52.510;7.342;2022-09-03T03:02:28;15.80;91.80
26326;DHT22;14032;52.510;7.342;2022-09-03T03:04:53;15.80;91.80
26326;DHT22;14032;52.510;7.342;2022-09-03T03:07:20;15.80;91.90
26326;DHT22;14032;52.510;7.342;2022-09-03T03:09:45;15.80;91.90
26326;DHT22;14032;52.510;7.342;2022-09-03T03:12:11;15.80;92.00
26326;DHT22;14032;52.510;7.342;2022-09-03T03:14:36;15.70;92.00
26326;DHT22;14032;52.510;7.342;2022-09-03T03:17:02;15.70;92.20
26326;DHT22;14032;52.510;7.342;2022-09-03T03:19:28;15.70;92.30
26326;DHT22;14032;52.510;7.342;2022-09-03T03:21:53;15.70;92.30
26326;DHT22;14032;52.510;7.342;2022-09-03T03:24:19;15.60;92.40
26326;DHT22;14032;52.510;7.342;2022-09-03T03:26:45;15.60;92.80
26326;DHT22;14032;52.510;7.342;2022-09-03T03:29:14;15.60;92.60
26326;DHT22;14032;52.510;7.342;2022-09-03T03:31:42;15.60;92.70
26326;DHT22;14032;52.510;7.342;2022-09-03T03:34:07;15.50;92.80
26326;DHT22;14032;52.510;7.342;2022-09-03T03:36:34;15.50;92.80
26326;DHT22;14032;52.510;7.342;2022-09-03T03:39:00;15.50;92.90
26326;DHT22;14032;52.510;7.342;2022-09-03T03:41:29;15.50;93.00
26326;DHT22;14032;52.510;7.342;2022-09-03T03:44:01;15.50;93.10
26326;DHT22;14032;52.510;7.342;2022-09-03T03:46:38;15.40;93.10
26326;DHT22;14032;52.510;7.342;2022-09-03T03:49:04;15.40;93.30
26326;DHT22;14032;52.510;7.342;2022-09-03T03:51:31;15.40;93.40
26326;DHT22;14032;52.510;7.342;2022-09-03T03:53:57;15.30;93.50
26326;DHT22;14032;52.510;7.342;2022-09-03T03:56:25;15.30;93.60
26326;DHT22;14032;52.510;7.342;2022-09-03T03:58:52;15.30;93.70
26326;DHT22;14032;52.510;7.342;2022-09-03T04:01:23;15.20;93.80
26326;DHT22;14032;52.510;7.342;2022-09-03T04:03:50;15.20;93.90
26326;DHT22;14032;52.510;7.342;2022-09-03T04:06:18;15.20;94.00
26326;DHT22;14032;52.510;7.342;2022-09-03T04:08:45;15.20;94.00
26326;DHT22;14032;52.510;7.342;2022-09-03T04:11:16;15.20;94.10
26326;DHT22;14032;52.510;7.342;2022-09-03T04:13:43;15.20;94.20
26326;DHT22;14032;52.510;7.342;2022-09-03T04:16:14;15.20;94.20
26326;DHT22;14032;52.510;7.342;2022-09-03T04:18:40;15.20;94.60
26326;DHT22;14032;52.510;7.342;2022-09-03T04:21:08;15.20;94.50
26326;DHT22;14032;52.510;7.342;2022-09-03T04:23:36;15.10;94.50
26326;DHT22;14032;52.510;7.342;2022-09-03T04:26:03;15.10;94.70
26326;DHT22;14032;52.510;7.342;2022-09-03T04:28:28;15.00;94.90
26326;DHT22;14032;52.510;7.342;2022-09-03T04:30:54;15.00;95.10
26326;DHT22;14032;52.510;7.342;2022-09-03T04:33:24;14.90;95.30
26326;DHT22;14032;52.510;7.342;2022-09-03T04:35:50;14.90;95.30
26326;DHT22;14032;52.510;7.342;2022-09-03T04:38:15;14.80;95.40
26326;DHT22;14032;52.510;7.342;2022-09-03T04:40:41;14.80;95.60
26326;DHT22;14032;52.510;7.342;2022-09-03T04:43:07;14.80;95.70
26326;DHT22;14032;52.510;7.342;2022-09-03T04:45:32;14.70;95.70
26326;DHT22;14032;52.510;7.342;2022-09-03T04:47:59;14.70;95.90
26326;DHT22;14032;52.510;7.342;2022-09-03T04:50:25;14.70;96.10
26326;DHT22;14032;52.510;7.342;2022-09-03T04:52:53;14.60;96.20
26326;DHT22;14032;52.510;7.342;2022-09-03T04:55:21;14.60;96.40
26326;DHT22;14032;52.510;7.342;2022-09-03T04:57:46;14.60;96.30
26326;DHT22;14032;52.510;7.342;2022-09-03T05:00:12;14.70;96.60
26326;DHT22;14032;52.510;7.342;2022-09-03T05:02:38;14.60;96.60
26326;DHT22;14032;52.510;7.342;2022-09-03T05:05:04;14.60;96.70
26326;DHT22;14032;52.510;7.342;2022-09-03T05:07:30;14.60;96.70
26326;DHT22;14032;52.510;7.342;2022-09-03T05:10:05;14.60;96.90
26326;DHT22;14032;52.510;7.342;2022-09-03T05:12:31;14.60;97.00
26326;DHT22;14032;52.510;7.342;2022-09-03T05:14:57;14.50;97.10
26326;DHT22;14032;52.510;7.342;2022-09-03T05:17:24;14.60;97.20
26326;DHT22;14032;52.510;7.342;2022-09-03T05:19:50;14.50;97.20
26326;DHT22;14032;52.510;7.342;2022-09-03T05:22:15;14.60;97.30
26326;DHT22;14032;52.510;7.342;2022-09-03T05:24:46;14.60;97.40
26326;DHT22;14032;52.510;7.342;2022-09-03T05:27:13;14.60;97.50
26326;DHT22;14032;52.510;7.342;2022-09-03T05:29:42;14.60;97.50
26326;DHT22;14032;52.510;7.342;2022-09-03T05:32:08;14.60;97.60
26326;DHT22;14032;52.510;7.342;2022-09-03T05:34:34;14.60;97.70
26326;DHT22;14032;52.510;7.342;2022-09-03T05:36:59;14.60;97.80
26326;DHT22;14032;52.510;7.342;2022-09-03T05:39:25;14.60;97.90
26326;DHT22;14032;52.510;7.342;2022-09-03T05:41:50;14.60;97.90
26326;DHT22;14032;52.510;7.342;2022-09-03T05:44:16;14.60;98.00
26326;DHT22;14032;52.510;7.342;2022-09-03T05:46:42;14.70;98.20
26326;DHT22;14032;52.510;7.342;2022-09-03T05:49:08;14.70;98.10
26326;DHT22;14032;52.510;7.342;2022-09-03T05:51:35;14.70;98.20
26326;DHT22;14032;52.510;7.342;2022-09-03T05:54:01;14.80;98.30
26326;DHT22;14032;52.510;7.342;2022-09-03T05:56:29;14.70;98.30
26326;DHT22;14032;52.510;7.342;2022-09-03T05:58:59;14.80;98.40
26326;DHT22;14032;52.510;7.342;2022-09-03T06:01:42;14.80;98.40
26326;DHT22;14032;52.510;7.342;2022-09-03T06:04:13;15.00;98.40
26326;DHT22;14032;52.510;7.342;2022-09-03T06:06:40;15.00;98.30
26326;DHT22;14032;52.510;7.342;2022-09-03T06:09:12;15.10;98.30
26326;DHT22;14032;52.510;7.342;2022-09-03T06:11:39;15.30;98.00
26326;DHT22;14032;52.510;7.342;2022-09-03T06:14:08;15.40;97.80
26326;DHT22;14032;52.510;7.342;2022-09-03T06:16:37;15.60;97.70
26326;DHT22;14032;52.510;7.342;2022-09-03T06:19:04;15.70;97.60
26326;DHT22;14032;52.510;7.342;2022-09-03T06:21:31;15.80;97.20
26326;DHT22;14032;52.510;7.342;2022-09-03T06:23:57;16.00;96.90
26326;DHT22;14032;52.510;7.342;2022-09-03T06:26:24;16.10;96.70
26326;DHT22;14032;52.510;7.342;2022-09-03T06:28:50;16.20;96.50
26326;DHT22;14032;52.510;7.342;2022-09-03T06:31:21;16.30;96.20
26326;DHT22;14032;52.510;7.342;2022-09-03T06:33:47;16.50;96.10
26326;DHT22;14032;52.510;7.342;2022-09-03T06:36:15;16.60;95.60
26326;DHT22;14032;52.510;7.342;2022-09-03T06:38:42;16.70;95.40
26326;DHT22;14032;52.510;7.342;2022-09-03T06:41:14;16.80;95.50
26326;DHT22;14032;52.510;7.342;2022-09-03T06:43:41;16.90;95.00
26326;DHT22;14032;52.510;7.342;2022-09-03T06:46:08;17.00;95.00
26326;DHT22;14032;52.510;7.342;2022-09-03T06:48:35;17.10;94.90
26326;DHT22;14032;52.510;7.342;2022-09-03T06:53:30;17.20;94.60
26326;DHT22;14032;52.510;7.342;2022-09-03T06:55:58;17.40;94.30
26326;DHT22;14032;52.510;7.342;2022-09-03T06:58:28;17.50;93.90
26326;DHT22;14032;52.510;7.342;2022-09-03T07:01:08;17.50;93.90
26326;DHT22;14032;52.510;7.342;2022-09-03T07:03:35;17.60;94.00
26326;DHT22;14032;52.510;7.342;2022-09-03T07:06:14;17.70;93.50
26326;DHT22;14032;52.510;7.342;2022-09-03T07:08:40;17.70;93.40
26326;DHT22;14032;52.510;7.342;2022-09-03T07:11:10;17.80;93.50
26326;DHT22;14032;52.510;7.342;2022-09-03T07:13:44;17.80;93.30
26326;DHT22;14032;52.510;7.342;2022-09-03T07:16:18;17.90;93.30
26326;DHT22;14032;52.510;7.342;2022-09-03T07:18:45;18.00;92.80
26326;DHT22;14032;52.510;7.342;2022-09-03T07:21:20;18.10;93.00
26326;DHT22;14032;52.510;7.342;2022-09-03T07:23:48;18.10;93.20
26326;DHT22;14032;52.510;7.342;2022-09-03T07:26:16;18.20;92.50
26326;DHT22;14032;52.510;7.342;2022-09-03T07:28:45;18.10;92.70
26326;DHT22;14032;52.510;7.342;2022-09-03T07:31:13;18.20;93.00
26326;DHT22;14032;52.510;7.342;2022-09-03T07:33:41;18.40;92.60
26326;DHT22;14032;52.510;7.342;2022-09-03T07:36:12;18.40;93.00
26326;DHT22;14032;52.510;7.342;2022-09-03T07:38:39;18.50;92.30
26326;DHT22;14032;52.510;7.342;2022-09-03T07:41:06;18.50;92.30
26326;DHT22;14032;52.510;7.342;2022-09-03T07:43:43;18.50;91.80
26326;DHT22;14032;52.510;7.342;2022-09-03T07:46:12;18.60;92.10
26326;DHT22;14032;52.510;7.342;2022-09-03T07:48:39;18.60;91.70
26326;DHT22;14032;52.510;7.342;2022-09-03T07:51:05;18.60;92.40
26326;DHT22;14032;52.510;7.342;2022-09-03T07:53:31;18.60;91.90
26326;DHT22;14032;52.510;7.342;2022-09-03T07:56:02;18.60;91.80
26326;DHT22;14032;52.510;7.342;2022-09-03T07:58:30;18.60;91.80
26326;DHT22;14032;52.510;7.342;2022-09-03T08:00:56;18.60;91.70
26326;DHT22;14032;52.510;7.342;2022-09-03T08:03:22;18.70;91.60
26326;DHT22;14032;52.510;7.342;2022-09-03T08:05:49;18.60;91.90
26326;DHT22;14032;52.510;7.342;2022-09-03T08:08:15;18.70;92.00
26326;DHT22;14032;52.510;7.342;2022-09-03T08:10:42;18.70;92.40
26326;DHT22;14032;52.510;7.342;2022-09-03T08:13:07;18.80;92.30
26326;DHT22;14032;52.510;7.342;2022-09-03T08:15:33;18.90;91.80
26326;DHT22;14032;52.510;7.342;2022-09-03T08:17:59;19.00;91.70
26326;DHT22;14032;52.510;7.342;2022-09-03T08:20:26;19.10;91.60
26326;DHT22;14032;52.510;7.342;2022-09-03T08:22:52;19.10;91.30
26326;DHT22;14032;52.510;7.342;2022-09-03T08:25:21;19.20;91.30
26326;DHT22;14032;52.510;7.342;2022-09-03T08:27:46;19.20;91.30
26326;DHT22;14032;52.510;7.342;2022-09-03T08:30:12;19.20;91.40
26326;DHT22;14032;52.510;7.342;2022-09-03T08:32:38;19.30;91.00
26326;DHT22;14032;52.510;7.342;2022-09-03T08:35:05;19.30;91.30
26326;DHT22;14032;52.510;7.342;2022-09-03T08:37:31;19.40;91.00
26326;DHT22;14032;52.510;7.342;2022-09-03T08:39:57;19.50;90.80
26326;DHT22;14032;52.510;7.342;2022-09-03T08:45:06;19.60;90.80
26326;DHT22;14032;52.510;7.342;2022-09-03T08:47:44;19.70;90.90
26326;DHT22;14032;52.510;7.342;2022-09-03T08:50:26;19.80;90.60
26326;DHT22;14032;52.510;7.342;2022-09-03T08:53:08;20.00;90.20
26326;DHT22;14032;52.510;7.342;2022-09-03T08:55:51;20.10;90.20
26326;DHT22;14032;52.510;7.342;2022-09-03T08:58:20;20.20;89.90
26326;DHT22;14032;52.510;7.342;2022-09-03T09:14:34;20.90;87.80
26326;DHT22;14032;52.510;7.342;2022-09-03T09:17:17;21.00;87.90
26326;DHT22;14032;52.510;7.342;2022-09-03T09:22:40;21.20;87.60
26326;DHT22;14032;52.510;7.342;2022-09-03T09:25:12;21.40;86.80
26326;DHT22;14032;52.510;7.342;2022-09-03T09:27:47;21.50;85.70
26326;DHT22;14032;52.510;7.342;2022-09-03T09:30:17;21.50;86.10
26326;DHT22;14032;52.510;7.342;2022-09-03T09:32:43;21.60;85.60
26326;DHT22;14032;52.510;7.342;2022-09-03T09:35:09;21.60;85.40
26326;DHT22;14032;52.510;7.342;2022-09-03T09:37:52;21.70;85.60
26326;DHT22;14032;52.510;7.342;2022-09-03T09:40:31;21.90;85.50
26326;DHT22;14032;52.510;7.342;2022-09-03T09:43:11;22.10;84.90
26326;DHT22;14032;52.510;7.342;2022-09-03T09:45:43;22.20;84.70
26326;DHT22;14032;52.510;7.342;2022-09-03T09:50:47;22.50;84.20
26326;DHT22;14032;52.510;7.342;2022-09-03T09:53:16;22.60;81.50
26326;DHT22;14032;52.510;7.342;2022-09-03T09:55:54;22.70;81.60
26326;DHT22;14032;52.510;7.342;2022-09-03T09:58:26;22.80;81.80
26326;DHT22;14032;52.510;7.342;2022-09-03T10:03:38;22.90;81.90
26326;DHT22;14032;52.510;7.342;2022-09-03T10:06:07;23.00;81.10
26326;DHT22;14032;52.510;7.342;2022-09-03T10:09:06;23.10;81.20
26326;DHT22;14032;52.510;7.342;2022-09-03T10:11:34;23.20;80.20
26326;DHT22;14032;52.510;7.342;2022-09-03T10:14:03;23.10;79.80
26326;DHT22;14032;52.510;7.342;2022-09-03T10:16:34;23.20;80.40
26326;DHT22;14032;52.510;7.342;2022-09-03T10:19:16;23.20;79.80
26326;DHT22;14032;52.510;7.342;2022-09-03T10:22:09;23.30;79.50
26326;DHT22;14032;52.510;7.342;2022-09-03T10:25:01;23.50;79.30
26326;DHT22;14032;52.510;7.342;2022-09-03T10:27:27;23.50;79.10
26326;DHT22;14032;52.510;7.342;2022-09-03T10:29:53;23.50;78.40
26326;DHT22;14032;52.510;7.342;2022-09-03T10:32:35;23.60;79.00
26326;DHT22;14032;52.510;7.342;2022-09-03T10:35:26;23.70;78.10
26326;DHT22;14032;52.510;7.342;2022-09-03T10:38:04;23.80;78.20
26326;DHT22;14032;52.510;7.342;2022-09-03T10:40:50;23.90;78.10
26326;DHT22;14032;52.510;7.342;2022-09-03T10:46:25;24.00;76.10
26326;DHT22;14032;52.510;7.342;2022-09-03T10:49:16;24.00;76.10
26326;DHT22;14032;52.510;7.342;2022-09-03T10:51:59;24.00;76.00
26326;DHT22;14032;52.510;7.342;2022-09-03T10:57:53;24.00;75.70
26326;DHT22;14032;52.510;7.342;2022-09-03T11:00:22;24.00;76.40
26326;DHT22;14032;52.510;7.342;2022-09-03T11:05:40;24.10;75.60
26326;DHT22;14032;52.510;7.342;2022-09-03T11:08:15;24.20;75.30
26326;DHT22;14032;52.510;7.342;2022-09-03T11:10:50;24.20;75.30
26326;DHT22;14032;52.510;7.342;2022-09-03T11:13:26;24.20;75.30
26326;DHT22;14032;52.510;7.342;2022-09-03T11:16:05;24.20;75.30
26326;DHT22;14032;52.510;7.342;2022-09-03T11:21:13;24.30;74.70
26326;DHT22;14032;52.510;7.342;2022-09-03T11:23:44;24.30;75.60
26326;DHT22;14032;52.510;7.342;2022-09-03T11:26:14;24.40;75.40
26326;DHT22;14032;52.510;7.342;2022-09-03T11:31:57;24.50;74.90
26326;DHT22;14032;52.510;7.342;2022-09-03T11:34:52;24.50;74.60
26326;DHT22;14032;52.510;7.342;2022-09-03T11:37:28;24.60;74.50
26326;DHT22;14032;52.510;7.342;2022-09-03T11:40:14;24.60;73.60
26326;DHT22;14032;52.510;7.342;2022-09-03T11:42:45;24.70;74.00
26326;DHT22;14032;52.510;7.342;2022-09-03T11:47:52;24.80;74.10
26326;DHT22;14032;52.510;7.342;2022-09-03T11:50:24;24.80;73.90
26326;DHT22;14032;52.510;7.342;2022-09-03T11:53:37;24.80;74.10
26326;DHT22;14032;52.510;7.342;2022-09-03T11:55:53;24.90;73.60
26326;DHT22;14032;52.510;7.342;2022-09-03T11:58:36;24.90;73.50
26326;DHT22;14032;52.510;7.342;2022-09-03T12:01:09;24.80;72.90
26326;DHT22;14032;52.510;7.342;2022-09-03T12:03:57;24.80;73.00
26326;DHT22;14032;52.510;7.342;2022-09-03T12:06:37;24.70;73.30
26326;DHT22;14032;52.510;7.342;2022-09-03T12:14:41;24.50;74.00
26326;DHT22;14032;52.510;7.342;2022-09-03T12:19:59;24.50;74.20
26326;DHT22;14032;52.510;7.342;2022-09-03T12:22:27;24.40;73.40
26326;DHT22;14032;52.510;7.342;2022-09-03T12:24:53;24.50;74.00
26326;DHT22;14032;52.510;7.342;2022-09-03T12:27:24;24.40;73.60
26326;DHT22;14032;52.510;7.342;2022-09-03T12:29:54;24.40;74.00
26326;DHT22;14032;52.510;7.342;2022-09-03T12:32:25;24.40;73.90
26326;DHT22;14032;52.510;7.342;2022-09-03T12:34:51;24.30;74.40
26326;DHT22;14032;52.510;7.342;2022-09-03T12:37:23;24.30;74.10
26326;DHT22;14032;52.510;7.342;2022-09-03T12:39:55;24.20;74.70
26326;DHT22;14032;52.510;7.342;2022-09-03T12:42:29;24.20;74.20
26326;DHT22;14032;52.510;7.342;2022-09-03T12:45:05;24.20;74.30
26326;DHT22;14032;52.510;7.342;2022-09-03T12:47:36;24.20;73.60
26326;DHT22;14032;52.510;7.342;2022-09-03T12:50:09;24.20;74.40
26326;DHT22;14032;52.510;7.342;2022-09-03T12:52:45;24.20;74.60
26326;DHT22;14032;52.510;7.342;2022-09-03T13:00:30;24.10;74.40
26326;DHT22;14032;52.510;7.342;2022-09-03T13:03:07;24.20;73.80
26326;DHT22;14032;52.510;7.342;2022-09-03T13:05:46;24.20;73.50
26326;DHT22;14032;52.510;7.342;2022-09-03T13:08:22;24.10;74.00
26326;DHT22;14032;52.510;7.342;2022-09-03T13:10:54;24.10;74.10
26326;DHT22;14032;52.510;7.342;2022-09-03T13:13:26;24.10;74.10
26326;DHT22;14032;52.510;7.342;2022-09-03T13:19:04;24.10;73.40
26326;DHT22;14032;52.510;7.342;2022-09-03T13:26:55;24.20;73.70
26326;DHT22;14032;52.510;7.342;2022-09-03T13:31:59;24.20;72.40
26326;DHT22;14032;52.510;7.342;2022-09-03T13:34:38;24.10;73.30
26326;DHT22;14032;52.510;7.342;2022-09-03T13:39:58;24.10;72.90
26326;DHT22;14032;52.510;7.342;2022-09-03T13:42:32;24.20;73.70
26326;DHT22;14032;52.510;7.342;2022-09-03T13:45:28;24.30;73.40
26326;DHT22;14032;52.510;7.342;2022-09-03T13:54:03;24.30;73.30
26326;DHT22;14032;52.510;7.342;2022-09-03T14:02:21;24.30;73.70
26326;DHT22;14032;52.510;7.342;2022-09-03T14:05:00;24.30;73.30
26326;DHT22;14032;52.510;7.342;2022-09-03T14:10:23;24.30;74.20
26326;DHT22;14032;52.510;7.342;2022-09-03T14:13:05;24.30;74.70
26326;DHT22;14032;52.510;7.342;2022-09-03T14:15:46;24.40;73.30
26326;DHT22;14032;52.510;7.342;2022-09-03T14:18:37;24.30;73.50
26326;DHT22;14032;52.510;7.342;2022-09-03T14:21:08;24.40;74.60
26326;DHT22;14032;52.510;7.342;2022-09-03T14:26:05;24.40;74.60
26326;DHT22;14032;52.510;7.342;2022-09-03T14:28:45;24.40;74.20
26326;DHT22;14032;52.510;7.342;2022-09-03T14:36:50;24.30;74.70
26326;DHT22;14032;52.510;7.342;2022-09-03T14:50:49;24.40;74.20
26326;DHT22;14032;52.510;7.342;2022-09-03T14:53:46;24.40;74.20
26326;DHT22;14032;52.510;7.342;2022-09-03T15:13:13;24.60;73.80
26326;DHT22;14032;52.510;7.342;2022-09-03T15:18:29;24.50;74.00
26326;DHT22;14032;52.510;7.342;2022-09-03T15:21:25;24.50;74.00
26326;DHT22;14032;52.510;7.342;2022-09-03T15:29:33;24.30;75.30
26326;DHT22;14032;52.510;7.342;2022-09-03T15:35:07;24.20;75.70
26326;DHT22;14032;52.510;7.342;2022-09-03T15:37:54;24.20;76.40
26326;DHT22;14032;52.510;7.342;2022-09-03T15:40:53;24.30;76.00
26326;DHT22;14032;52.510;7.342;2022-09-03T15:43:25;24.30;75.20
26326;DHT22;14032;52.510;7.342;2022-09-03T15:46:09;24.30;75.40
26326;DHT22;14032;52.510;7.342;2022-09-03T15:48:48;24.30;75.50
26326;DHT22;14032;52.510;7.342;2022-09-03T15:55:06;24.30;75.60
26326;DHT22;14032;52.510;7.342;2022-09-03T16:00:09;24.30;75.10
26326;DHT22;14032;52.510;7.342;2022-09-03T16:03:01;24.20;75.70
26326;DHT22;14032;52.510;7.342;2022-09-03T16:05:56;24.20;75.90
26326;DHT22;14032;52.510;7.342;2022-09-03T16:08:48;24.20;76.30
26326;DHT22;14032;52.510;7.342;2022-09-03T16:12:13;24.10;76.10
26326;DHT22;14032;52.510;7.342;2022-09-03T16:14:53;24.20;76.60
26326;DHT22;14032;52.510;7.342;2022-09-03T16:17:43;24.20;75.30
26326;DHT22;14032;52.510;7.342;2022-09-03T16:20:37;24.20;75.70
26326;DHT22;14032;52.510;7.342;2022-09-03T16:23:41;24.20;75.00
26326;DHT22;14032;52.510;7.342;2022-09-03T16:26:26;24.10;75.30
26326;DHT22;14032;52.510;7.342;2022-09-03T16:29:07;24.10;76.10
26326;DHT22;14032;52.510;7.342;2022-09-03T16:32:10;24.10;75.80
26326;DHT22;14032;52.510;7.342;2022-09-03T17:12:42;23.70;76.70
26326;DHT22;14032;52.510;7.342;2022-09-03T17:20:59;23.70;76.40
26326;DHT22;14032;52.510;7.342;2022-09-03T17:24:06;23.60;76.30
26326;DHT22;14032;52.510;7.342;2022-09-03T17:26:42;23.70;76.70
26326;DHT22;14032;52.510;7.342;2022-09-03T17:29:39;23.60;76.60
26326;DHT22;14032;52.510;7.342;2022-09-03T17:35:21;23.50;77.30
26326;DHT22;14032;52.510;7.342;2022-09-03T17:48:52;23.30;77.00
26326;DHT22;14032;52.510;7.342;2022-09-03T17:54:12;23.20;77.20
26326;DHT22;14032;52.510;7.342;2022-09-03T17:56:47;23.20;77.60
26326;DHT22;14032;52.510;7.342;2022-09-03T18:01:57;23.10;77.40
26326;DHT22;14032;52.510;7.342;2022-09-03T18:04:47;23.10;77.50
26326;DHT22;14032;52.510;7.342;2022-09-03T18:15:14;22.80;77.90
26326;DHT22;14032;52.510;7.342;2022-09-03T18:17:54;22.70;78.20
26326;DHT22;14032;52.510;7.342;2022-09-03T18:20:24;22.70;78.50
26326;DHT22;14032;52.510;7.342;2022-09-03T18:26:06;22.60;79.00
26326;DHT22;14032;52.510;7.342;2022-09-03T18:29:10;22.50;79.00
26326;DHT22;14032;52.510;7.342;2022-09-03T18:32:04;22.40;79.10
26326;DHT22;14032;52.510;7.342;2022-09-03T18:34:48;22.30;79.30
26326;DHT22;14032;52.510;7.342;2022-09-03T18:37:32;22.30;79.30
26326;DHT22;14032;52.510;7.342;2022-09-03T18:40:22;22.30;79.50
26326;DHT22;14032;52.510;7.342;2022-09-03T18:43:44;22.20;79.70
26326;DHT22;14032;52.510;7.342;2022-09-03T18:50:21;22.10;80.10
26326;DHT22;14032;52.510;7.342;2022-09-03T18:53:39;22.00;80.10
26326;DHT22;14032;52.510;7.342;2022-09-03T18:56:34;21.90;80.50
26326;DHT22;14032;52.510;7.342;2022-09-03T19:08:40;21.70;81.20
26326;DHT22;14032;52.510;7.342;2022-09-03T19:11:52;21.60;82.10
26326;DHT22;14032;52.510;7.342;2022-09-03T19:21:16;21.40;81.80
26326;DHT22;14032;52.510;7.342;2022-09-03T19:24:03;21.40;81.90
26326;DHT22;14032;52.510;7.342;2022-09-03T19:30:03;21.20;82.50
26326;DHT22;14032;52.510;7.342;2022-09-03T19:33:23;21.20;82.70
26326;DHT22;14032;52.510;7.342;2022-09-03T19:40:02;21.10;82.70
26326;DHT22;14032;52.510;7.342;2022-09-03T19:55:46;20.70;83.90
26326;DHT22;14032;52.510;7.342;2022-09-03T19:58:32;20.60;84.40
26326;DHT22;14032;52.510;7.342;2022-09-03T20:01:19;20.60;84.60
26326;DHT22;14032;52.510;7.342;2022-09-03T20:04:14;20.50;84.80
26326;DHT22;14032;52.510;7.342;2022-09-03T20:07:02;20.40;84.90
26326;DHT22;14032;52.510;7.342;2022-09-03T20:09:46;20.40;85.10
26326;DHT22;14032;52.510;7.342;2022-09-03T20:12:38;20.30;85.20
26326;DHT22;14032;52.510;7.342;2022-09-03T20:15:06;20.30;85.10
26326;DHT22;14032;52.510;7.342;2022-09-03T20:18:02;20.20;84.90
26326;DHT22;14032;52.510;7.342;2022-09-03T20:23:14;20.10;85.10
26326;DHT22;14032;52.510;7.342;2022-09-03T20:29:12;20.10;85.00
26326;DHT22;14032;52.510;7.342;2022-09-03T20:32:04;20.00;84.80
26326;DHT22;14032;52.510;7.342;2022-09-03T20:40:07;19.90;85.20
26326;DHT22;14032;52.510;7.342;2022-09-03T20:43:13;19.80;85.30
26326;DHT22;14032;52.510;7.342;2022-09-03T20:51:23;19.60;86.20
26326;DHT22;14032;52.510;7.342;2022-09-03T20:54:02;19.50;86.50
26326;DHT22;14032;52.510;7.342;2022-09-03T20:56:44;19.50;86.70
26326;DHT22;14032;52.510;7.342;2022-09-03T21:05:03;19.20;87.30
26326;DHT22;14032;52.510;7.342;2022-09-03T21:13:17;19.00;87.40
26326;DHT22;14032;52.510;7.342;2022-09-03T21:18:45;19.00;87.30
26326;DHT22;14032;52.510;7.342;2022-09-03T21:24:08;18.90;87.50
26326;DHT22;14032;52.510;7.342;2022-09-03T21:26:39;18.80;87.70
26326;DHT22;14032;52.510;7.342;2022-09-03T21:32:14;18.80;87.90
26326;DHT22;14032;52.510;7.342;2022-09-03T21:37:33;18.70;87.80
26326;DHT22;14032;52.510;7.342;2022-09-03T21:40:00;18.60;87.80
26326;DHT22;14032;52.510;7.342;2022-09-03T21:48:07;18.50;88.50
26326;DHT22;14032;52.510;7.342;2022-09-03T21:51:03;18.50;88.40
26326;DHT22;14032;52.510;7.342;2022-09-03T21:53:45;18.40;88.40
26326;DHT22;14032;52.510;7.342;2022-09-03T21:56:38;18.40;88.50
26326;DHT22;14032;52.510;7.342;2022-09-03T22:00:16;18.30;88.40
26326;DHT22;14032;52.510;7.342;2022-09-03T22:02:24;18.30;88.50
26326;DHT22;14032;52.510;7.342;2022-09-03T22:04:50;18.20;88.60
26326;DHT22;14032;52.510;7.342;2022-09-03T22:07:42;18.20;88.50
26326;DHT22;14032;52.510;7.342;2022-09-03T22:15:21;18.10;88.30
26326;DHT22;14032;52.510;7.342;2022-09-03T22:17:50;18.10;88.20